Tiempo atmosférico en la estación meteorológica de Rivilla De Barajas, Ávila (925 m.)



Fecha
DESCASC
Temp. máxima en grados centígrados (hora)
DESCASC
Temp. mínima en grados centígrados (hora)
DESCASC
Temp. media en grados centígrados
DESCASC
Racha de viento máxima en m/sg (hora)
DESCASC
Velocidad máxima media en intervalos de 10 minutos(hora)
DESCASC
Precipitaciones diarias en mm
DESCASC
Precipitaciones de 00:00 a 06:00 en mm
DESCASC
Precipitaciones de 06:00 a 12:00 en mm
DESCASC
Precipitaciones de 12:00 a 18:00 en mm
DESCASC
Precipitaciones de 18:00 a 24:00 en mm
DESCASC
13-01-2021 4.4 (11:00) -3.8 (02:00) 0.3 2.78 (21:00) 2.22 (00:10) 0 0 0 0 0
12-01-2021 0.2 (17:00) -7.1 (05:30) -3.4 3.33 (23:00) 3.06 (23:00) 0.6 0 0.6 0 0
11-01-2021 -0.7 (16:30) -4.8 (08:10) -2.8 6.39 (11:50) 4.72 (12:00) 2.4 0 0 2.4 0
10-01-2021 -0.2 (15:50) -6.5 (23:00) -3.4 7.78 (19:30) 5.28 (19:30) 5.4 0 0 5.4 0
09-01-2021 -2.5 (00:00) -4 (-00:0) -3.3 10 (10:50) 7.22 (10:00) 0 0 0 0 0
08-01-2021 -2.4 (23:00) -7.5 (-00:0) -5 6.11 (13:50) 4.72 (14:50) 0 0 0 0 0
07-01-2021 1.8 (15:50) -5.9 (-00:0) -2.1 3.61 (14:40) 2.5 (13:40) 0 0 0 0 0
06-01-2021 3.1 (15:20) -5.3 (-00:0) -1.1 6.39 (15:20) 4.17 (15:20) 0 0 0 0 0
05-01-2021 2.6 (15:30) -4.7 (-00:0) -1 3.89 (00:10) 3.06 (00:10) 0 0 0 0 0
04-01-2021 2.6 (15:20) -2.3 (-00:0) 0.1 10 (11:10) 6.94 (01:50) 0 0 0 0 0
03-01-2021 1.5 (17:00) -3.6 (-00:0) -1 11.39 (13:30) 8.06 (13:00) 0 0 0 0 0
02-01-2021 2 (16:20) -3.9 (-00:0) -1 6.67 (12:30) 4.44 (12:30) 0 0 0 0 0
01-01-2021 3.1 (16:20) -1.8 (-00:0) 0.6 11.11 (12:40) 8.89 (12:40) 0.4 0.4 0 0 0
31-12-2020 5.8 (13:40) 0.4 (00:00) 3.1 16.67 (15:30) 10.83 (15:40) 1.4 0 0 0 1.4
30-12-2020 3.8 (15:00) -2 (-00:0) 0.9 10 (11:20) 6.67 (11:30) 0 0 0 0 0
29-12-2020 4.6 (15:20) -1 (-00:0) 1.8 13.61 (15:20) 10.28 (15:30) 0 0 0 0 0
28-12-2020 5.9 (03:40) 0.9 (00:00) 3.4 23.61 (03:40) 16.94 (03:40) 4.2 4.2 0 0 0
27-12-2020 7.9 (13:20) -2.3 (-00:0) 2.8 21.94 (23:50) 13.61 (23:50) 0 0 0 0 0
26-12-2020 3.6 (15:00) -3.7 (-00:0) -0.1 8.61 (12:20) 6.39 (12:00) 0 0 0 0 0
25-12-2020 4.4 (15:40) -2.7 (-00:0) 0.9 10.28 (12:30) 6.67 (14:10) 0 0 0 0 0
24-12-2020 6.7 (00:00) 0.9 (00:00) 3.8 6.39 (03:20) 4.17 (03:20) 0.6 0.6 0 0 0
23-12-2020 11.7 (14:30) 3.6 (00:00) 7.6 13.06 (12:10) 8.61 (12:30) 0.2 0 0 0 0.2
22-12-2020 15.7 (13:00) 6.5 (00:00) 11.1 5 (19:50) 3.33 (18:30) 0 0 0 0 0
21-12-2020 12 (15:50) 6.3 (00:00) 9.2 8.61 (13:10) 5.56 (13:10) 1 1 0 0 0
20-12-2020 9.7 (16:00) 2.7 (00:00) 6.2 4.72 (00:20) 3.33 (00:20) 0 0 0 0 0
19-12-2020 8.5 (16:40) 3.1 (00:00) 5.8 8.89 (03:40) 6.11 (19:10) 4.6 1.6 0.2 1 1.8
18-12-2020 10.5 (15:00) -2.3 (-00:0) 4.1 6.67 (23:10) 4.72 (16:20) 0.2 0 0.2 0 0

Gráficas

Temp. máximas Temp. mínimas Temp. medias Precipitaciones Rachas de viento máximas Velocidades máximas media en intervalos de 10 minutos

Datos horarios

Fecha y hora oficial Temperatura (ºC) Velocidad del viento (km/h) Dirección del viento Racha (km/h) Dirección de racha Precipitación (mm) Presión (hPa) Tendencia (hPa) Humedad (%)
2021-01-16 23:00:00 2 7 Sur 11 Sur 0 -- -- 43
2021-01-16 22:00:00 3.4 9 Sur 10 Sur 0 -- -- 39
2021-01-16 21:00:00 3.3 7 Sur 10 Sur 0 -- -- 41
2021-01-16 20:00:00 2.9 8 Sur 12 Sur 0 -- -- 44
2021-01-16 19:00:00 1.4 7 Sur 11 Sur 0 -- -- 62
2021-01-16 18:00:00 -0.8 4 Sur 6 Sur 0 -- -- 86
2021-01-16 17:00:00 -1.4 2 Nordeste 6 Nordeste 0 -- -- 86
2021-01-16 16:00:00 1.6 0 Calma 4 Nordeste 0 -- -- 78
2021-01-16 15:00:00 1.7 0 Calma 7 Este 0 -- -- 79
2021-01-16 14:00:00 2.3 3 Este 4 Este 0 -- -- 71
2021-01-16 13:00:00 2.1 0 Calma 8 Sudeste 0 -- -- 76
2021-01-16 12:00:00 2.4 5 Sudeste 8 Sudeste 0 -- -- 68
2021-01-16 11:00:00 -1.4 0 Calma 2 Este 0 -- -- 99
2021-01-16 10:00:00 -3.2 0 Calma -- -- 0 -- -- 100
2021-01-16 09:00:00 -7.1 0 Calma -- -- 0 -- -- 97
2021-01-16 08:00:00 -4.8 0 Calma -- -- 0 -- -- 99
2021-01-16 07:00:00 -3.5 0 Calma -- -- 0 -- -- 98
2021-01-16 06:00:00 -4.9 0 Calma -- -- 0 -- -- 100
2021-01-16 05:00:00 -6.7 0 Calma -- -- 0 -- -- 98
2021-01-16 04:00:00 -8.5 0 Calma -- -- 0 -- -- 97
2021-01-16 03:00:00 -9.7 0 Calma -- -- 0 -- -- 94
2021-01-16 02:00:00 -4.3 0 Calma -- -- 0 -- -- 99
2021-01-16 01:00:00 -5.5 0 Calma -- -- 0 -- -- 100
2021-01-16 00:00:00 -7.6 0 Calma -- -- 0 -- -- 97
2021-01-15 23:00:00 -7.3 0 Calma -- -- 0 -- -- 97
2021-01-15 22:00:00 -6.5 0 Calma -- -- 0 -- -- 98
2021-01-15 21:00:00 -5.7 0 Calma -- -- 0 -- -- 98
2021-01-15 20:00:00 -5.1 0 Calma 5 Este 0 -- -- 98
2021-01-15 19:00:00 -4.3 3 Nordeste 8 Nordeste 0 -- -- 99
2021-01-15 18:00:00 -3.6 3 Nordeste 5 Nordeste 0 -- -- 97
2021-01-15 17:00:00 -2 3 Este 4 Este 0 -- -- 97
2021-01-15 16:00:00 -1.4 2 Nordeste 10 Nordeste 0 -- -- 98
2021-01-15 15:00:00 -1.7 7 Nordeste 17 Nordeste 0 -- -- 97
2021-01-15 14:00:00 -0.6 13 Nordeste 20 Sudeste 0 -- -- 87
2021-01-15 13:00:00 3.4 17 Sudeste 23 Sudeste 0 -- -- 79
2021-01-15 12:00:00 3.6 15 Sudeste 21 Sudeste 0 -- -- 79
2021-01-15 11:00:00 1.9 13 Sudeste 19 Sudeste 0 -- -- 95
2021-01-15 10:00:00 -2.8 4 Sudeste 7 Este 0 -- -- 97
2021-01-15 09:00:00 -0.3 5 Este 8 Este 0 -- -- 94
2021-01-15 08:00:00 1.9 5 Sudeste 8 Sudeste 0 -- -- 95
2021-01-15 07:00:00 1.8 3 Sudeste 15 Sudeste 0 -- -- 95
2021-01-15 06:00:00 2.2 10 Sudeste 16 Sudeste 0 -- -- 95
2021-01-15 05:00:00 1.8 8 Sudeste 17 Sudeste 0 -- -- 96
2021-01-15 04:00:00 1.6 12 Sudeste 19 Sudeste 0 -- -- 96
2021-01-15 03:00:00 1.8 11 Sudeste 20 Sudeste 0 -- -- 97
2021-01-15 02:00:00 0.9 15 Sudeste 23 Sudeste 0 -- -- 98
2021-01-15 01:00:00 -0.5 12 Sudeste 19 Sudeste 0 -- -- 96
2021-01-15 00:00:00 0 14 Sudeste 21 Sudeste 0 -- -- 92
2021-01-14 23:00:00 -1.5 9 Sudeste 15 Sur 0 -- -- 83
2021-01-14 22:00:00 -3.4 3 Sudeste 10 Sudeste 0 -- -- 76
2021-01-14 21:00:00 -4.7 0 Calma 12 Sur 0 -- -- 87
2021-01-14 20:00:00 -2.5 5 Sur 8 Sur 0 -- -- 80
2021-01-14 19:00:00 -2.7 5 Sur 8 Sur 0 -- -- 83
2021-01-14 18:00:00 -1.1 3 Sur 6 Sur 0 -- -- 73
2021-01-14 17:00:00 0.6 2 Norte 7 Norte 0 -- -- 71
2021-01-14 16:00:00 0.8 4 Norte 9 Norte 0 -- -- 71
2021-01-14 15:00:00 2 3 Este -- -- 0 -- -- 68
2021-01-14 14:00:00 1.4 5 Sudeste 5 Sudeste 0 -- -- 68
2021-01-14 13:00:00 1.4 3 Norte 7 Norte 0 -- -- 70
2021-01-14 12:00:00 1.3 0 Calma 4 Norte 0 -- -- 63
2021-01-14 11:00:00 -0.6 0 Calma 5 Noroeste 0 -- -- 68
2021-01-14 10:00:00 -2.8 0 Calma 4 Norte 0 -- -- 67
2021-01-14 09:00:00 -2.9 4 Sur 8 Sur 0 -- -- 74
2021-01-14 08:00:00 -2.2 6 Sur 11 Sur 0 -- -- 71
2021-01-14 07:00:00 -1.8 0 Calma 3 Este 0 -- -- 70
2021-01-14 06:00:00 -1.1 0 Calma 4 Sur 0 -- -- 65
2021-01-14 05:00:00 -1.4 5 Sur 9 Sur 0 -- -- 63
2021-01-14 04:00:00 -1.6 7 Sur 8 Sur 0 -- -- 66
2021-01-14 03:00:00 -2 2 Sur 3 Sur 0 -- -- 64
2021-01-14 02:00:00 -2 0 Calma 2 Sudeste 0 -- -- 61
2021-01-14 01:00:00 -1.9 0 Calma 8 Sur 0 -- -- 61
2021-01-14 00:00:00 -1.3 5 Sur 7 Sur 0 -- -- 60
2021-01-13 23:00:00 0 4 Sudeste 7 Sur 0 -- -- 55
2021-01-13 22:00:00 -0.9 7 Sur 10 Sur 0 -- -- 60
2021-01-13 21:00:00 -2.3 8 Sur 10 Sur 0 -- -- 66
2021-01-13 20:00:00 -0.9 4 Sudeste 7 Sur 0 -- -- 63
2021-01-13 19:00:00 -1 5 Sur 6 Sur 0 -- -- 67
2021-01-13 18:00:00 1 0 Calma 6 Este 0 -- -- 60
2021-01-13 17:00:00 1.4 -- -- -- -- 0 -- -- 56
2021-01-13 16:00:00 3.1 0 Calma 3 Nordeste 0 -- -- 53
2021-01-13 15:00:00 1.9 2 Norte 4 Nordeste 0 -- -- 55
2021-01-13 14:00:00 1.7 0 Calma 2 Nordeste 0 -- -- 53
2021-01-13 13:00:00 0.5 0 Calma 5 Norte 0 -- -- 57
2021-01-13 12:00:00 2.6 3 Nordeste 6 Sur 0 -- -- 53
2021-01-13 11:00:00 4.4 6 Sur 9 Sur 0 -- -- 47
2021-01-13 10:00:00 -0.7 4 Sur 7 Sur 0 -- -- 57
2021-01-13 09:00:00 -2.5 3 Sudeste 6 Este 0 -- -- 60
2021-01-13 08:00:00 -0.9 3 Sudeste 5 Sur 0 -- -- 54
2021-01-13 07:00:00 -1.2 3 Sudeste 4 Sudeste 0 -- -- 56
2021-01-13 06:00:00 -1.6 0 Calma 6 Sur 0 -- -- 59
2021-01-13 05:00:00 -0.6 2 Sur 2 Sudoeste 0 -- -- 56
2021-01-13 04:00:00 -0.2 0 Calma 4 Sudoeste 0 -- -- 55
2021-01-13 03:00:00 -1.6 3 Sudoeste 8 Sudoeste 0 -- -- 62
2021-01-13 02:00:00 -3.8 4 Sudoeste 9 Sudoeste 0 -- -- 71
2021-01-13 01:00:00 -2.8 6 Oeste 9 Oeste 0 -- -- 69
2021-01-13 00:00:00 -2.5 9 Oeste 11 Sudoeste 0 -- -- 68
2021-01-12 23:00:00 -3.1 11 Oeste 12 Oeste 0 -- -- 70
2021-01-12 22:00:00 -1.9 5 Sudoeste 6 Sudoeste 0 -- -- 70
2021-01-12 21:00:00 -4 4 Sudoeste 7 Sur 0 -- -- 76
2021-01-12 20:00:00 -4.4 6 Sur 10 Sur 0 -- -- 76
2021-01-12 19:00:00 -4 6 Sur 9 Sur 0 -- -- 84
2021-01-12 18:00:00 -2.2 0 Calma 5 Sur 0 -- -- 77
2021-01-12 17:00:00 0.2 3 Sur 8 Sur 0 -- -- 73
2021-01-12 16:00:00 -1.2 4 Nordeste 8 Norte 0 -- -- 75
2021-01-12 15:00:00 -1.2 0 Calma 9 Este 0 -- -- 79
2021-01-12 14:00:00 -0.9 3 Este 6 Este 0 -- -- 72
2021-01-12 13:00:00 -1.5 6 Sudeste 7 Este 0 -- -- 68
2021-01-12 12:00:00 -2.1 2 Norte 4 Nordeste 0.6 -- -- 79
2021-01-12 11:00:00 -2.3 3 Sudeste 5 Sudeste 0 -- -- 84
2021-01-12 10:00:00 -3.9 4 Sur 8 Sur 0 -- -- 96
2021-01-12 09:00:00 -5.8 4 Sudeste 9 Sur 0 -- -- 98
2021-01-12 08:00:00 -6.1 4 Sudeste 8 Sudeste 0 -- -- 97
2021-01-12 07:00:00 -6.4 3 Sudeste 10 Sur 0 -- -- 98
2021-01-12 06:00:00 -6.8 5 Sur 8 Sur 0 -- -- 96
2021-01-12 05:00:00 -5.8 7 Sur 10 Sur 0 -- -- 95
2021-01-12 04:00:00 -5.9 6 Sur 9 Sur 0 -- -- 95
2021-01-12 03:00:00 -5.8 4 Sur 8 Sur 0 -- -- 94
2021-01-12 02:00:00 -6.4 5 Sur 9 Sur 0 -- -- 93
2021-01-12 01:00:00 -5.1 5 Sudeste 8 Sudeste 0 -- -- 93
2021-01-12 00:00:00 -4.5 5 Sudeste 11 Sudeste 0 -- -- 89
2021-01-11 23:00:00 -3.6 9 Sudeste 14 Sudeste 0 -- -- 88
2021-01-11 22:00:00 -3.4 6 Sur 11 Sudeste 0 -- -- 88
2021-01-11 21:00:00 -4.5 5 Sur 8 Sur 0 -- -- 90
2021-01-11 20:00:00 -4.1 6 Sudeste 7 Sudeste 0 -- -- 90
2021-01-11 19:00:00 -3.7 6 Sur 9 Sur 0 -- -- 86
2021-01-11 18:00:00 -2.2 3 Sur 6 Sur 0 -- -- 82
2021-01-11 17:00:00 -0.9 4 Sur 8 Sur 0.6 -- -- 80
2021-01-11 16:00:00 -1.2 7 Este 10 Este 0.8 -- -- 78
2021-01-11 15:00:00 -1 6 Este 19 Este 0.6 -- -- 78
2021-01-11 14:00:00 -1.5 14 Este 21 Este 0.2 -- -- 80
2021-01-11 13:00:00 -2.1 17 Este 23 Este 0.2 -- -- 81
2021-01-11 12:00:00 -1.8 17 Este 23 Este 0 -- -- 82
2021-01-11 11:00:00 -3.6 10 Este 15 Este 0 -- -- 83
2021-01-11 10:00:00 -2.8 14 Este 19 Este 0 -- -- 83
2021-01-11 09:00:00 -4.4 7 Este 12 Nordeste 0 -- -- 90
2021-01-11 08:00:00 -4.5 2 Este 8 Este 0 -- -- 92
2021-01-11 07:00:00 -3.1 4 Este 10 Este 0 -- -- 87
2021-01-11 06:00:00 -3.3 3 Este 15 Este 0 -- -- 89
2021-01-11 05:00:00 -3.4 8 Este 14 Sudeste 0 -- -- 90
2021-01-11 04:00:00 -3.4 9 Sudeste 11 Sudeste 0 -- -- 90
2021-01-11 03:00:00 -3.4 6 Sudeste 10 Sudeste 0 -- -- 90
2021-01-11 02:00:00 -3.7 7 Sudeste 12 Sudeste 0 -- -- 92
2021-01-11 01:00:00 -4.5 9 Sudeste 11 Sudeste 0 -- -- 91
2021-01-11 00:00:00 -4.7 8 Este 13 Este 0 -- -- 92
2021-01-10 23:00:00 -6.5 12 Este 14 Este 0 -- -- 93
2021-01-10 22:00:00 -5.2 7 Nordeste 10 Nordeste 0 -- -- 95
2021-01-10 21:00:00 -4.5 8 Nordeste 23 Este 0 -- -- 90
2021-01-10 20:00:00 -2.1 19 Este 28 Nordeste 0 -- -- 86
2021-01-10 19:00:00 -1.4 18 Este 26 Este 0 -- -- 87
2021-01-10 18:00:00 -1.2 9 Este 17 Nordeste 0.2 -- -- 90
2021-01-10 17:00:00 -1.1 11 Este 21 Este 0.6 -- -- 87
2021-01-10 16:00:00 -0.3 17 Este 23 Este 1 -- -- 86
2021-01-10 15:00:00 -0.6 17 Este 26 Este 1 -- -- 90
2021-01-10 14:00:00 -0.7 15 Nordeste 24 Nordeste 1.6 -- -- 95
2021-01-10 13:00:00 -0.9 16 Nordeste 25 Nordeste 1 -- -- 99
2021-01-10 12:00:00 -1.8 6 Nordeste 10 Nordeste 0 -- -- 100
2021-01-10 11:00:00 -2.6 3 Este 5 Este 0 -- -- 100
2021-01-10 10:00:00 -2.8 0 Calma 2 Este 0 -- -- 100
2021-01-10 09:00:00 -3.6 0 Calma 0 Calma 0 -- -- 100
2021-01-10 08:00:00 -3.8 0 Calma 3 Sur 0 -- -- 100
2021-01-10 07:00:00 -3.9 0 Calma 4 Este 0 -- -- 100
2021-01-10 06:00:00 -4.1 3 Sudeste 4 Sudeste 0 -- -- 100
2021-01-10 05:00:00 -4.3 3 Este 10 Nordeste 0 -- -- 100
2021-01-10 04:00:00 -5.9 0 Calma 5 Nordeste 0 -- -- 99
2021-01-10 03:00:00 -5.4 5 Nordeste 8 Nordeste 0 -- -- 98
2021-01-10 02:00:00 -3.8 2 Nordeste 6 Nordeste 0 -- -- 100
2021-01-10 01:00:00 -3.9 5 Sudeste 8 Este 0 -- -- 100
2021-01-10 00:00:00 -3.7 5 Nordeste 8 Este 0 -- -- 100
2021-01-09 23:00:00 -3.3 7 Este 10 Este 0 -- -- 100
2021-01-09 22:00:00 -3.5 4 Este 5 Este 0 -- -- 100
2021-01-09 21:00:00 -3.6 2 Nordeste 3 Este 0 -- -- 100
2021-01-09 20:00:00 -3.6 2 Nordeste 5 Nordeste 0 -- -- 100
2021-01-09 19:00:00 -3.4 4 Nordeste 13 Nordeste 0 -- -- 99
2021-01-09 18:00:00 -3.3 9 Nordeste 18 Nordeste 0 -- -- 99
2021-01-09 17:00:00 -3 8 Nordeste 17 Nordeste 0 -- -- 99
2021-01-09 16:00:00 -2.8 9 Nordeste 21 Nordeste 0 -- -- 99
2021-01-09 15:00:00 -3.1 17 Nordeste 22 Nordeste 0 -- -- 99
2021-01-09 14:00:00 -3.4 15 Nordeste 34 Nordeste 0 -- -- 99
2021-01-09 13:00:00 -3.6 22 Nordeste 33 Nordeste 0 -- -- 99
2021-01-09 12:00:00 -3.7 21 Nordeste 33 Nordeste 0 -- -- 99
2021-01-09 11:00:00 -3.9 24 Nordeste 36 Nordeste 0 -- -- 99
2021-01-09 10:00:00 -4 26 Nordeste 35 Nordeste 0 -- -- 99
2021-01-09 09:00:00 -3.9 23 Nordeste 31 Nordeste 0 -- -- 100
2021-01-09 08:00:00 -3.6 17 Nordeste 23 Nordeste 0 -- -- 100
2021-01-09 07:00:00 -3.2 13 Nordeste 28 Nordeste 0 -- -- 100
2021-01-09 06:00:00 -3.2 15 Nordeste 22 Nordeste 0 -- -- 100
2021-01-09 05:00:00 -3.1 11 Nordeste 18 Nordeste 0 -- -- 100
2021-01-09 04:00:00 -3 14 Nordeste 24 Nordeste 0 -- -- 100
2021-01-09 03:00:00 -2.9 15 Nordeste 23 Nordeste 0 -- -- 100
2021-01-09 02:00:00 -2.7 15 Nordeste 21 Nordeste 0 -- -- 100
2021-01-09 01:00:00 -2.7 13 Nordeste 20 Nordeste 0 -- -- 100
2021-01-09 00:00:00 -2.5 12 Nordeste 18 Nordeste 0 -- -- 100
2021-01-08 23:00:00 -2.4 11 Nordeste 17 Nordeste 0 -- -- 99
2021-01-08 22:00:00 -3 8 Nordeste 14 Este 0 -- -- 100
2021-01-08 21:00:00 -3.5 4 Este 7 Este 0 -- -- 99
2021-01-08 20:00:00 -3.6 5 Este 10 Este 0 -- -- 98
2021-01-08 19:00:00 -3.7 8 Este 14 Este 0 -- -- 98
2021-01-08 18:00:00 -3.7 11 Este 15 Este 0 -- -- 97
2021-01-08 17:00:00 -3.6 12 Este 15 Este 0 -- -- 97
2021-01-08 16:00:00 -3.5 13 Este 17 Este 0 -- -- 96
2021-01-08 15:00:00 -3.4 15 Este 21 Este 0 -- -- 94
2021-01-08 14:00:00 -3.2 13 Nordeste 22 Nordeste 0 -- -- 90
2021-01-08 13:00:00 -3.9 13 Nordeste 17 Este 0 -- -- 93
2021-01-08 12:00:00 -4.9 8 Este 16 Este 0 -- -- 93
2021-01-08 11:00:00 -5.6 9 Este 14 Este 0 -- -- 96
2021-01-08 10:00:00 -6.6 8 Este 12 Este 0 -- -- 95
2021-01-08 09:00:00 -7 7 Este 9 Este 0 -- -- 96
2021-01-08 08:00:00 -7.3 5 Este 11 Este 0 -- -- 95
2021-01-08 07:00:00 -7.3 9 Sudeste 11 Este 0 -- -- 95
2021-01-08 06:00:00 -7.5 7 Sudeste 8 Sudeste 0 -- -- 93
2021-01-08 05:00:00 -7.2 3 Este 8 Este 0 -- -- 94
2021-01-08 04:00:00 -6.7 6 Este 8 Este 0 -- -- 96
2021-01-08 03:00:00 -7.3 4 Nordeste 7 Nordeste 0 -- -- 95
2021-01-08 02:00:00 -6.4 0 Calma 5 Este 0 -- -- 94
2021-01-08 01:00:00 -5.6 4 Sudeste 5 Sudeste 0 -- -- 92
2021-01-08 00:00:00 -5.9 3 Nordeste 5 Este 0 -- -- 91
2021-01-07 23:00:00 -4.6 0 Calma 4 Sudeste 0 -- -- 90
2021-01-07 22:00:00 -3 2 Sudeste -- -- 0 -- -- 85
2021-01-07 21:00:00 -2.1 4 Sudeste 6 Sudeste 0 -- -- 84
2021-01-07 20:00:00 -1.6 4 Sudeste 6 Este 0 -- -- 80
2021-01-07 19:00:00 -1.2 3 Este 8 Nordeste 0 -- -- 80
2021-01-07 18:00:00 -0.1 6 Nordeste 10 Nordeste 0 -- -- 76
2021-01-07 17:00:00 1.6 7 Nordeste 12 Este 0 -- -- 70
2021-01-07 16:00:00 1.8 6 Nordeste 13 Nordeste 0 -- -- 70
2021-01-07 15:00:00 0.8 7 Nordeste 13 Nordeste 0 -- -- 76
2021-01-07 14:00:00 0.5 8 Nordeste 13 Norte 0 -- -- 79
2021-01-07 13:00:00 -1.4 6 Nordeste 12 Nordeste 0 -- -- 88
2021-01-07 12:00:00 -3.2 6 Nordeste 9 Nordeste 0 -- -- 93
2021-01-07 11:00:00 -3.8 5 Nordeste 6 Nordeste 0 -- -- 93
2021-01-07 10:00:00 -4.9 2 Nordeste 3 Sudeste 0 -- -- 95
2021-01-07 09:00:00 -5.6 0 Calma 4 Sur 0 -- -- 94
2021-01-07 08:00:00 -5.8 3 Sur 6 Sur 0 -- -- 93
2021-01-07 07:00:00 -5.9 0 Calma 5 Norte 0 -- -- 92
2021-01-07 06:00:00 -5.7 3 Norte 4 Norte 0 -- -- 92
2021-01-07 05:00:00 -5.3 2 Nordeste 2 Nordeste 0 -- -- 91
2021-01-07 04:00:00 -5.3 0 Calma 4 Nordeste 0 -- -- 91
2021-01-07 03:00:00 -5.2 3 Nordeste 6 Sudeste 0 -- -- 89
2021-01-07 02:00:00 -4 5 Sudeste 8 Sudeste 0 -- -- 87
2021-01-07 01:00:00 -4.6 3 Sudeste 10 Sudeste 0 -- -- 89
2021-01-07 00:00:00 -3.7 7 Sudeste 13 Este 0 -- -- 88
2021-01-06 23:00:00 -3.1 9 Sudeste 12 Sudeste 0 -- -- 88
2021-01-06 22:00:00 -2.6 6 Sudeste 10 Este 0 -- -- 86
2021-01-06 21:00:00 -2.2 4 Este 11 Sudeste 0 -- -- 83
2021-01-06 20:00:00 -1.5 6 Sudeste 9 Sudeste 0 -- -- 80
2021-01-06 19:00:00 -1.3 7 Este 12 Este 0 -- -- 83
2021-01-06 18:00:00 0.2 11 Este 18 Nordeste 0 -- -- 75
2021-01-06 17:00:00 2.6 13 Nordeste 21 Este 0 -- -- 64
2021-01-06 16:00:00 3.1 13 Este 23 Este 0 -- -- 61
2021-01-06 15:00:00 3 12 Este 18 Este 0 -- -- 59
2021-01-06 14:00:00 2.7 10 Este 18 Sudeste 0 -- -- 63
2021-01-06 13:00:00 1.6 11 Este 17 Este 0 -- -- 72
2021-01-06 12:00:00 0 11 Este 15 Este 0 -- -- 75
2021-01-06 11:00:00 -1.2 6 Sudeste 8 Sudeste 0 -- -- 78
2021-01-06 10:00:00 -3.5 0 Calma 3 Norte 0 -- -- 86
2021-01-06 09:00:00 -5.2 0 Calma 2 Nordeste 0 -- -- 88
2021-01-06 08:00:00 -4.6 0 Calma 2 Sur 0 -- -- 86
2021-01-06 07:00:00 -4.9 0 Calma 3 Sudeste 0 -- -- 85
2021-01-06 06:00:00 -4.1 2 Sudeste 4 Sur 0 -- -- 84
2021-01-06 05:00:00 -4.1 0 Calma 6 Sudeste 0 -- -- 84
2021-01-06 04:00:00 -3.6 5 Sur 6 Sur 0 -- -- 82
2021-01-06 03:00:00 -3.4 5 Sur 8 Sur 0 -- -- 81
2021-01-06 02:00:00 -3.1 5 Sur 9 Sur 0 -- -- 82
2021-01-06 01:00:00 -2.8 6 Sur 8 Sur 0 -- -- 81
2021-01-06 00:00:00 -2.8 5 Sur 8 Sudeste 0 -- -- 82
2021-01-05 23:00:00 -3 3 Sudeste 6 Sudeste 0 -- -- 84
2021-01-05 22:00:00 -2.8 0 Calma 4 Sudeste 0 -- -- 84
2021-01-05 21:00:00 -2 3 Sudeste 5 Sudeste 0 -- -- 81
2021-01-05 20:00:00 -1.5 3 Este -- -- 0 -- -- 79
2021-01-05 19:00:00 -1.6 3 Nordeste 6 Nordeste 0 -- -- 79
2021-01-05 18:00:00 0.3 4 Nordeste 10 Nordeste 0 -- -- 72
2021-01-05 17:00:00 1.8 8 Nordeste 13 Nordeste 0 -- -- 65
2021-01-05 16:00:00 2.4 8 Nordeste 13 Este 0 -- -- 61
2021-01-05 15:00:00 2.3 5 Nordeste 13 Este 0 -- -- 59
2021-01-05 14:00:00 2.1 2 Nordeste 8 Nordeste 0 -- -- 58
2021-01-05 13:00:00 1.7 5 Este 8 Este 0 -- -- 65
2021-01-05 12:00:00 0.8 4 Este 8 Este 0 -- -- 73
2021-01-05 11:00:00 -0.6 2 Este 5 Este 0 -- -- 79
2021-01-05 10:00:00 -3.2 3 Sudoeste 6 Sudoeste 0 -- -- 93
2021-01-05 09:00:00 -4.1 6 Sudoeste 7 Sudoeste 0 -- -- 94
2021-01-05 08:00:00 -4.5 6 Sudoeste 8 Sudoeste 0 -- -- 95
2021-01-05 07:00:00 -4 6 Sudoeste 10 Oeste 0 -- -- 94
2021-01-05 06:00:00 -4.2 7 Oeste 10 Sudoeste 0 -- -- 93
2021-01-05 05:00:00 -4.2 8 Oeste 11 Oeste 0 -- -- 93
2021-01-05 04:00:00 -3.4 9 Sudoeste 12 Sudoeste 0 -- -- 93
2021-01-05 03:00:00 -3.3 7 Oeste 9 Oeste 0 -- -- 93
2021-01-05 02:00:00 -2.6 8 Sudoeste 14 Sudoeste 0 -- -- 91
2021-01-05 01:00:00 -2.2 10 Sudoeste 14 Sudoeste 0 -- -- 90
2021-01-05 00:00:00 -1.5 8 Sudoeste 15 Sudoeste 0 -- -- 89
2021-01-04 23:00:00 -2.3 9 Sudoeste 14 Sudoeste 0 -- -- 90
2021-01-04 22:00:00 -2.1 8 Oeste 18 Oeste 0 -- -- 89
2021-01-04 21:00:00 -1.4 10 Oeste 16 Oeste 0 -- -- 88
2021-01-04 20:00:00 -1.6 10 Oeste 16 Oeste 0 -- -- 87
2021-01-04 19:00:00 -1 13 Oeste 19 Oeste 0 -- -- 86
2021-01-04 18:00:00 -0.1 14 Oeste 19 Oeste 0 -- -- 83
2021-01-04 17:00:00 1.7 16 Oeste 26 Oeste 0 -- -- 72
2021-01-04 16:00:00 2.6 17 Noroeste 27 Noroeste 0 -- -- 71
2021-01-04 15:00:00 1.6 19 Noroeste 27 Oeste 0 -- -- 72
2021-01-04 14:00:00 2.5 20 Noroeste 28 Noroeste 0 -- -- 76
2021-01-04 13:00:00 1.1 18 Oeste 33 Oeste 0 -- -- 80
2021-01-04 12:00:00 1.1 22 Oeste 36 Oeste 0 -- -- 82
2021-01-04 11:00:00 0.2 20 Oeste 33 Oeste 0 -- -- 87
2021-01-04 10:00:00 -1 21 Oeste 32 Oeste 0 -- -- 91
2021-01-04 09:00:00 -2 17 Oeste 26 Oeste 0 -- -- 95
2021-01-04 08:00:00 -1.9 15 Oeste 25 Oeste 0 -- -- 95
2021-01-04 07:00:00 -1 18 Oeste 32 Oeste 0 -- -- 94
2021-01-04 06:00:00 -1.2 21 Oeste 30 Oeste 0 -- -- 96
2021-01-04 05:00:00 -0.5 17 Oeste 31 Oeste 0 -- -- 95
2021-01-04 04:00:00 -0.5 18 Oeste 29 Oeste 0 -- -- 95
2021-01-04 03:00:00 -0.7 19 Oeste 32 Oeste 0 -- -- 93
2021-01-04 02:00:00 -0.6 24 Oeste 35 Oeste 0 -- -- 93
2021-01-04 01:00:00 -0.8 18 Oeste 29 Oeste 0 -- -- 92
2021-01-04 00:00:00 0 19 Oeste 34 Oeste 0 -- -- 88
2021-01-03 23:00:00 0.4 19 Oeste 32 Oeste 0 -- -- 86
2021-01-03 22:00:00 0.2 18 Oeste 28 Sudoeste 0 -- -- 84
2021-01-03 21:00:00 0.4 19 Oeste 30 Sudoeste 0 -- -- 82
2021-01-03 20:00:00 0.2 17 Oeste 29 Oeste 0 -- -- 84
2021-01-03 19:00:00 0 16 Oeste 23 Oeste 0 -- -- 87
2021-01-03 18:00:00 0.9 15 Sudoeste 25 Sudoeste 0 -- -- 87
2021-01-03 17:00:00 1.5 14 Oeste 29 Oeste 0 -- -- 82
2021-01-03 16:00:00 0.8 22 Oeste 38 Oeste 0 -- -- 85
2021-01-03 15:00:00 0.5 24 Oeste 37 Oeste 0 -- -- 87
2021-01-03 14:00:00 -0.4 25 Oeste 41 Oeste 0 -- -- 91
2021-01-03 13:00:00 -0.4 29 Oeste 37 Oeste 0 -- -- 90
2021-01-03 12:00:00 -0.4 21 Oeste 31 Oeste 0 -- -- 84
2021-01-03 11:00:00 -1 17 Oeste 26 Sudoeste 0 -- -- 87
2021-01-03 10:00:00 -2 14 Oeste 23 Oeste 0 -- -- 88
2021-01-03 09:00:00 -3.4 11 Sudoeste 24 Sudoeste 0 -- -- 90
2021-01-03 08:00:00 -3.2 15 Sudoeste 23 Sudoeste 0 -- -- 89
2021-01-03 07:00:00 -3.1 14 Sudoeste 22 Sudoeste 0 -- -- 91
2021-01-03 06:00:00 -3.1 16 Sudoeste 23 Oeste 0 -- -- 91
2021-01-03 05:00:00 -3.3 10 Oeste 18 Sudoeste 0 -- -- 90
2021-01-03 04:00:00 -2.8 11 Sudoeste 18 Sudoeste 0 -- -- 88
2021-01-03 03:00:00 -3.2 10 Sudoeste 14 Oeste 0 -- -- 89
2021-01-03 02:00:00 -3.4 8 Sudoeste 12 Oeste 0 -- -- 89
2021-01-03 01:00:00 -2.7 9 Oeste 14 Oeste 0 -- -- 87
2021-01-03 00:00:00 -2.2 10 Sudoeste 14 Sudoeste 0 -- -- 86
2021-01-02 23:00:00 -1.6 10 Oeste 15 Oeste 0 -- -- 85
2021-01-02 22:00:00 -2.3 9 Oeste 13 Oeste 0 -- -- 85
2021-01-02 21:00:00 -2.2 10 Oeste 12 Oeste 0 -- -- 85
2021-01-02 20:00:00 -1.6 8 Oeste 10 Oeste 0 -- -- 83
2021-01-02 19:00:00 -0.7 4 Noroeste 5 Oeste 0 -- -- 79
2021-01-02 18:00:00 0.1 3 Norte 12 Norte 0 -- -- 75
2021-01-02 17:00:00 1.7 9 Norte 24 Noroeste 0 -- -- 66
2021-01-02 16:00:00 1.6 10 Norte 17 Norte 0 -- -- 66
2021-01-02 15:00:00 1.5 9 Norte 19 Norte 0 -- -- 67
2021-01-02 14:00:00 1.1 10 Norte 21 Norte 0 -- -- 73